55.9°F
Current conditions from King Hill
Updated every 5 minutes
 
  Thursday July 31, 2014

Station Historical Data
Daily Summary for February 11, 2011 Units:  Both    English   Metric
« Previous Day
Next Day »
Daily Weekly Monthly Yearly Custom
  High: Low: Average:
Temperature: 21.3 °F /  -5.9 °C 5.4 °F /  -14.8 °C 13.8 °F /  -10.1 °C
Dew Point: 6.7 °F /  -14.1 °C -2.3 °F /  -19.1 °C 3 °F /  -16.1 °C
Humidity: 71% 50% 62%
Wind Speed: 9.0mph /  14.5km/h - 4.2mph /  6.8km/h
Wind Gust: 16.0mph /  25.7km/h - -
Wind- - SSW
Pressure: 30.05 in /  1017.5 hPa 29.91 in /  1012.8 hPa -
Precipitation: 0.00 in /  0 mm    
Historical Graphs
 
 
Tabular Data for February 11, 2011
Time Temperature Dew Point Pressure Wind Wind Speed Wind Gust Humidity Daily Rainfall
00:00 14.4 °F /  -9.8 °C 4.1 °F /  -15.5 °C 29.98in /  1015.1hPa WSW 4.0mph /  6.4km/h 8.0mph /  12.9km/h 63% 0.00in /  0mm
00:05 14.2 °F /  -9.9 °C 4.3 °F /  -15.4 °C 29.98in /  1015.1hPa SSW 4.0mph /  6.4km/h 8.0mph /  12.9km/h 64% 0.00in /  0mm
00:10 13.6 °F /  -10.2 °C 4.3 °F /  -15.4 °C 29.98in /  1015.1hPa SSW 4.0mph /  6.4km/h 9.0mph /  14.5km/h 66% 0.00in /  0mm
00:15 13.3 °F /  -10.4 °C 4.1 °F /  -15.5 °C 29.98in /  1015.1hPa SSW 5.0mph /  8km/h 9.0mph /  14.5km/h 66% 0.00in /  0mm
00:20 13.2 °F /  -10.4 °C 4.0 °F /  -15.6 °C 29.98in /  1015.1hPa SSW 3.0mph /  4.8km/h 11.0mph /  17.7km/h 66% 0.00in /  0mm
00:25 13.1 °F /  -10.5 °C 4.2 °F /  -15.4 °C 29.98in /  1015.1hPa SSW 5.0mph /  8km/h 11.0mph /  17.7km/h 67% 0.00in /  0mm
00:30 13.0 °F /  -10.6 °C 3.8 °F /  -15.7 °C 29.98in /  1015.1hPa SSW 6.0mph /  9.7km/h 12.0mph /  19.3km/h 66% 0.00in /  0mm
00:35 13.0 °F /  -10.6 °C 3.8 °F /  -15.7 °C 29.98in /  1015.1hPa SW 6.0mph /  9.7km/h 12.0mph /  19.3km/h 66% 0.00in /  0mm
00:40 12.9 °F /  -10.6 °C 4.0 °F /  -15.6 °C 29.97in /  1014.8hPa SSW 3.0mph /  4.8km/h 9.0mph /  14.5km/h 67% 0.00in /  0mm
00:45 12.8 °F /  -10.7 °C 3.9 °F /  -15.6 °C 29.98in /  1015.1hPa SSW 4.0mph /  6.4km/h 7.0mph /  11.3km/h 67% 0.00in /  0mm
00:50 12.8 °F /  -10.7 °C 3.9 °F /  -15.6 °C 29.98in /  1015.1hPa SW 2.0mph /  3.2km/h 7.0mph /  11.3km/h 67% 0.00in /  0mm
00:55 12.8 °F /  -10.7 °C 3.6 °F /  -15.8 °C 29.98in /  1015.1hPa SSW 2.0mph /  3.2km/h 7.0mph /  11.3km/h 66% 0.00in /  0mm
01:05 12.8 °F /  -10.7 °C 3.6 °F /  -15.8 °C 29.98in /  1015.1hPa SW 3.0mph /  4.8km/h 7.0mph /  11.3km/h 66% 0.00in /  0mm
01:10 12.8 °F /  -10.7 °C 3.3 °F /  -15.9 °C 29.98in /  1015.1hPa SW 4.0mph /  6.4km/h 9.0mph /  14.5km/h 65% 0.00in /  0mm
01:15 12.9 °F /  -10.6 °C 3.3 °F /  -15.9 °C 29.98in /  1015.1hPa SW 5.0mph /  8km/h 10.0mph /  16.1km/h 65% 0.00in /  0mm
01:20 12.8 °F /  -10.7 °C 3.3 °F /  -15.9 °C 29.98in /  1015.1hPa SW 3.0mph /  4.8km/h 10.0mph /  16.1km/h 65% 0.00in /  0mm
01:25 12.7 °F /  -10.7 °C 3.5 °F /  -15.8 °C 29.98in /  1015.1hPa SW 2.0mph /  3.2km/h 9.0mph /  14.5km/h 66% 0.00in /  0mm
01:30 12.7 °F /  -10.7 °C 3.2 °F /  -16 °C 29.98in /  1015.1hPa SW 4.0mph /  6.4km/h 9.0mph /  14.5km/h 65% 0.00in /  0mm
01:35 12.6 °F /  -10.8 °C 3.4 °F /  -15.9 °C 29.98in /  1015.1hPa SSW 2.0mph /  3.2km/h 9.0mph /  14.5km/h 66% 0.00in /  0mm
01:40 12.5 °F /  -10.8 °C 3.3 °F /  -15.9 °C 29.98in /  1015.1hPa SSW 1.0mph /  1.6km/h 7.0mph /  11.3km/h 66% 0.00in /  0mm
01:45 12.3 °F /  -10.9 °C 3.4 °F /  -15.9 °C 29.98in /  1015.1hPa South 2.0mph /  3.2km/h 6.0mph /  9.7km/h 67% 0.00in /  0mm
01:50 12.3 °F /  -10.9 °C 3.4 °F /  -15.9 °C 29.98in /  1015.1hPa SW 1.0mph /  1.6km/h 7.0mph /  11.3km/h 67% 0.00in /  0mm
01:55 12.2 °F /  -11 °C 3.3 °F /  -15.9 °C 29.98in /  1015.1hPa SSW 3.0mph /  4.8km/h 7.0mph /  11.3km/h 67% 0.00in /  0mm
02:00 12.1 °F /  -11.1 °C 3.6 °F /  -15.8 °C 29.98in /  1015.1hPa SW 3.0mph /  4.8km/h 7.0mph /  11.3km/h 68% 0.00in /  0mm
02:05 12.0 °F /  -11.1 °C 3.1 °F /  -16.1 °C 29.98in /  1015.1hPa SSW 3.0mph /  4.8km/h 7.0mph /  11.3km/h 67% 0.00in /  0mm
02:10 11.9 °F /  -11.2 °C 3.0 °F /  -16.1 °C 29.98in /  1015.1hPa SSW 2.0mph /  3.2km/h 6.0mph /  9.7km/h 67% 0.00in /  0mm
02:15 11.9 °F /  -11.2 °C 3.0 °F /  -16.1 °C 29.98in /  1015.1hPa SSW 2.0mph /  3.2km/h 5.0mph /  8km/h 67% 0.00in /  0mm
02:19 11.8 °F /  -11.2 °C 2.6 °F /  -16.3 °C 29.98in /  1015.1hPa Calm   6.0mph /  9.7km/h 66% 0.00in /  0mm
02:25 11.7 °F /  -11.3 °C 2.5 °F /  -16.4 °C 29.98in /  1015.1hPa SSW 4.0mph /  6.4km/h 7.0mph /  11.3km/h 66% 0.00in /  0mm
02:30 11.7 °F /  -11.3 °C 2.2 °F /  -16.6 °C 29.98in /  1015.1hPa SSW 4.0mph /  6.4km/h 8.0mph /  12.9km/h 65% 0.00in /  0mm
02:35 11.6 °F /  -11.3 °C 2.4 °F /  -16.4 °C 29.98in /  1015.1hPa SSW 3.0mph /  4.8km/h 8.0mph /  12.9km/h 66% 0.00in /  0mm
02:40 11.6 °F /  -11.3 °C 2.4 °F /  -16.4 °C 29.98in /  1015.1hPa SSW 3.0mph /  4.8km/h 11.0mph /  17.7km/h 66% 0.00in /  0mm
02:45 11.5 °F /  -11.4 °C 2.3 °F /  -16.5 °C 29.98in /  1015.1hPa SSW 3.0mph /  4.8km/h 11.0mph /  17.7km/h 66% 0.00in /  0mm
02:50 11.4 °F /  -11.4 °C 2.2 °F /  -16.6 °C 29.98in /  1015.1hPa SSW 2.0mph /  3.2km/h 8.0mph /  12.9km/h 66% 0.00in /  0mm
02:55 11.4 °F /  -11.4 °C 2.2 °F /  -16.6 °C 29.98in /  1015.1hPa SSW 5.0mph /  8km/h 10.0mph /  16.1km/h 66% 0.00in /  0mm
03:00 11.3 °F /  -11.5 °C 2.1 °F /  -16.6 °C 29.98in /  1015.1hPa SSW 2.0mph /  3.2km/h 10.0mph /  16.1km/h 66% 0.00in /  0mm
03:05 11.2 °F /  -11.6 °C 1.7 °F /  -16.8 °C 29.97in /  1014.8hPa SSW 5.0mph /  8km/h 9.0mph /  14.5km/h 65% 0.00in /  0mm
03:09 11.1 °F /  -11.6 °C 1.6 °F /  -16.9 °C 29.98in /  1015.1hPa SW 5.0mph /  8km/h 10.0mph /  16.1km/h 65% 0.00in /  0mm
03:15 11.0 °F /  -11.7 °C 1.5 °F /  -16.9 °C 29.98in /  1015.1hPa SW 5.0mph /  8km/h 11.0mph /  17.7km/h 65% 0.00in /  0mm
03:20 11.1 °F /  -11.6 °C 1.6 °F /  -16.9 °C 29.98in /  1015.1hPa SW 7.0mph /  11.3km/h 11.0mph /  17.7km/h 65% 0.00in /  0mm
03:24 11.2 °F /  -11.6 °C 1.4 °F /  -17 °C 29.98in /  1015.1hPa SW 6.0mph /  9.7km/h 13.0mph /  20.9km/h 64% 0.00in /  0mm
03:30 11.1 °F /  -11.6 °C 1.3 °F /  -17.1 °C 29.98in /  1015.1hPa SW 6.0mph /  9.7km/h 13.0mph /  20.9km/h 64% 0.00in /  0mm
03:35 11.0 °F /  -11.7 °C 1.2 °F /  -17.1 °C 29.98in /  1015.1hPa SW 5.0mph /  8km/h 10.0mph /  16.1km/h 64% 0.00in /  0mm
03:39 10.9 °F /  -11.7 °C 1.1 °F /  -17.2 °C 29.98in /  1015.1hPa SW 4.0mph /  6.4km/h 12.0mph /  19.3km/h 64% 0.00in /  0mm
03:45 10.8 °F /  -11.8 °C 1.0 °F /  -17.2 °C 29.98in /  1015.1hPa SSW 4.0mph /  6.4km/h 12.0mph /  19.3km/h 64% 0.00in /  0mm
03:50 10.7 °F /  -11.8 °C 0.9 °F /  -17.3 °C 29.98in /  1015.1hPa SW 5.0mph /  8km/h 10.0mph /  16.1km/h 64% 0.00in /  0mm
03:55 10.5 °F /  -11.9 °C 0.7 °F /  -17.4 °C 29.98in /  1015.1hPa SW 5.0mph /  8km/h 10.0mph /  16.1km/h 64% 0.00in /  0mm
03:59 10.4 °F /  -12 °C 0.6 °F /  -17.4 °C 29.98in /  1015.1hPa SW 5.0mph /  8km/h 10.0mph /  16.1km/h 64% 0.00in /  0mm
04:05 10.3 °F /  -12.1 °C 0.5 °F /  -17.5 °C 29.98in /  1015.1hPa SW 5.0mph /  8km/h 10.0mph /  16.1km/h 64% 0.00in /  0mm
04:10 10.1 °F /  -12.2 °C 0.3 °F /  -17.6 °C 29.98in /  1015.1hPa SW 6.0mph /  9.7km/h 10.0mph /  16.1km/h 64% 0.00in /  0mm
04:14 9.9 °F /  -12.3 °C 0.2 °F /  -17.7 °C 29.98in /  1015.1hPa SW 7.0mph /  11.3km/h 11.0mph /  17.7km/h 64% 0.00in /  0mm
04:20 9.9 °F /  -12.3 °C 0.2 °F /  -17.7 °C 29.98in /  1015.1hPa SSW 7.0mph /  11.3km/h 12.0mph /  19.3km/h 64% 0.00in /  0mm
04:24 9.9 °F /  -12.3 °C 0.2 °F /  -17.7 °C 29.98in /  1015.1hPa SW 6.0mph /  9.7km/h 12.0mph /  19.3km/h 64% 0.00in /  0mm
04:30 9.6 °F /  -12.4 °C -0.1 °F /  -17.8 °C 29.98in /  1015.1hPa SW 7.0mph /  11.3km/h 12.0mph /  19.3km/h 64% 0.00in /  0mm
04:35 9.6 °F /  -12.4 °C 0.2 °F /  -17.7 °C 29.98in /  1015.1hPa SW 9.0mph /  14.5km/h 12.0mph /  19.3km/h 65% 0.00in /  0mm
04:39 9.4 °F /  -12.6 °C 0.0 °F /  -17.8 °C 29.98in /  1015.1hPa SW 7.0mph /  11.3km/h 13.0mph /  20.9km/h 65% 0.00in /  0mm
04:45 9.2 °F /  -12.7 °C -0.2 °F /  -17.9 °C 29.98in /  1015.1hPa SW 7.0mph /  11.3km/h 13.0mph /  20.9km/h 65% 0.00in /  0mm
04:50 9.2 °F /  -12.7 °C -0.2 °F /  -17.9 °C 29.98in /  1015.1hPa SSW 7.0mph /  11.3km/h 13.0mph /  20.9km/h 65% 0.00in /  0mm
04:55 9.3 °F /  -12.6 °C -0.1 °F /  -17.8 °C 29.98in /  1015.1hPa SSW 9.0mph /  14.5km/h 14.0mph /  22.5km/h 65% 0.00in /  0mm
05:00 9.3 °F /  -12.6 °C -0.1 °F /  -17.8 °C 29.99in /  1015.5hPa SSW 7.0mph /  11.3km/h 16.0mph /  25.7km/h 65% 0.00in /  0mm
05:05 9.2 °F /  -12.7 °C -0.2 °F /  -17.9 °C 29.99in /  1015.5hPa SSW 7.0mph /  11.3km/h 16.0mph /  25.7km/h 65% 0.00in /  0mm
05:09 9.2 °F /  -12.7 °C -0.2 °F /  -17.9 °C 29.99in /  1015.5hPa SSW 5.0mph /  8km/h 15.0mph /  24.1km/h 65% 0.00in /  0mm
05:15 8.9 °F /  -12.8 °C -0.5 °F /  -18.1 °C 29.98in /  1015.1hPa SSW 6.0mph /  9.7km/h 14.0mph /  22.5km/h 65% 0.00in /  0mm
05:20 8.6 °F /  -13 °C -0.4 °F /  -18 °C 29.98in /  1015.1hPa SSW 4.0mph /  6.4km/h 12.0mph /  19.3km/h 66% 0.00in /  0mm
05:24 8.7 °F /  -12.9 °C -0.3 °F /  -17.9 °C 29.99in /  1015.5hPa SSW 4.0mph /  6.4km/h 9.0mph /  14.5km/h 66% 0.00in /  0mm
05:30 8.7 °F /  -12.9 °C 0.0 °F /  -17.8 °C 29.98in /  1015.1hPa SSW 6.0mph /  9.7km/h 11.0mph /  17.7km/h 67% 0.00in /  0mm
05:35 8.8 °F /  -12.9 °C 0.1 °F /  -17.7 °C 29.99in /  1015.5hPa SSW 6.0mph /  9.7km/h 11.0mph /  17.7km/h 67% 0.00in /  0mm
05:40 8.8 °F /  -12.9 °C 0.1 °F /  -17.7 °C 29.99in /  1015.5hPa SSW 4.0mph /  6.4km/h 11.0mph /  17.7km/h 67% 0.00in /  0mm
05:44 8.6 °F /  -13 °C -0.1 °F /  -17.8 °C 29.99in /  1015.5hPa SSW 5.0mph /  8km/h 8.0mph /  12.9km/h 67% 0.00in /  0mm
05:50 8.6 °F /  -13 °C -0.1 °F /  -17.8 °C 29.99in /  1015.5hPa SSW 7.0mph /  11.3km/h 11.0mph /  17.7km/h 67% 0.00in /  0mm
05:55 8.4 °F /  -13.1 °C -0.3 °F /  -17.9 °C 29.99in /  1015.5hPa SW 5.0mph /  8km/h 11.0mph /  17.7km/h 67% 0.00in /  0mm
05:59 8.5 °F /  -13.1 °C -0.2 °F /  -17.9 °C 30.00in /  1015.8hPa SSW 6.0mph /  9.7km/h 9.0mph /  14.5km/h 67% 0.00in /  0mm
06:04 8.5 °F /  -13.1 °C -0.2 °F /  -17.9 °C 30.00in /  1015.8hPa SW 4.0mph /  6.4km/h 12.0mph /  19.3km/h 67% 0.00in /  0mm
06:10 8.5 °F /  -13.1 °C 0.1 °F /  -17.7 °C 30.00in /  1015.8hPa SSW 5.0mph /  8km/h 12.0mph /  19.3km/h 68% 0.00in /  0mm
06:15 8.6 °F /  -13 °C -0.1 °F /  -17.8 °C 30.00in /  1015.8hPa SSW 6.0mph /  9.7km/h 11.0mph /  17.7km/h 67% 0.00in /  0mm
06:20 8.5 °F /  -13.1 °C -0.2 °F /  -17.9 °C 30.00in /  1015.8hPa SW 4.0mph /  6.4km/h 10.0mph /  16.1km/h 67% 0.00in /  0mm
06:25 8.2 °F /  -13.2 °C -0.5 °F /  -18.1 °C 30.00in /  1015.8hPa SW 4.0mph /  6.4km/h 10.0mph /  16.1km/h 67% 0.00in /  0mm
06:30 7.9 °F /  -13.4 °C -0.8 °F /  -18.2 °C 30.00in /  1015.8hPa SW 4.0mph /  6.4km/h 8.0mph /  12.9km/h 67% 0.00in /  0mm
06:40 7.2 °F /  -13.8 °C -1.1 °F /  -18.4 °C 30.00in /  1015.8hPa SSW 4.0mph /  6.4km/h 7.0mph /  11.3km/h 68% 0.00in /  0mm
06:45 7.1 °F /  -13.8 °C -1.2 °F /  -18.4 °C 30.01in /  1016.1hPa SW 4.0mph /  6.4km/h 8.0mph /  12.9km/h 68% 0.00in /  0mm
06:50 6.8 °F /  -14 °C -1.2 °F /  -18.4 °C 30.01in /  1016.1hPa SW 3.0mph /  4.8km/h 8.0mph /  12.9km/h 69% 0.00in /  0mm
06:55 6.6 °F /  -14.1 °C -1.4 °F /  -18.6 °C 30.01in /  1016.1hPa SSW 4.0mph /  6.4km/h 8.0mph /  12.9km/h 69% 0.00in /  0mm
07:00 6.3 °F /  -14.3 °C -1.7 °F /  -18.7 °C 30.01in /  1016.1hPa SSW 4.0mph /  6.4km/h 8.0mph /  12.9km/h 69% 0.00in /  0mm
07:05 6.2 °F /  -14.3 °C -1.5 °F /  -18.6 °C 30.01in /  1016.1hPa SSW 4.0mph /  6.4km/h 8.0mph /  12.9km/h 70% 0.00in /  0mm
07:09 6.1 °F /  -14.4 °C -1.6 °F /  -18.7 °C 30.01in /  1016.1hPa SSW 4.0mph /  6.4km/h 8.0mph /  12.9km/h 70% 0.00in /  0mm
07:15 5.8 °F /  -14.6 °C -2.2 °F /  -19 °C 30.01in /  1016.1hPa SSW 3.0mph /  4.8km/h 8.0mph /  12.9km/h 69% 0.00in /  0mm
07:19 5.7 °F /  -14.6 °C -2.0 °F /  -18.9 °C 30.01in /  1016.1hPa SSW 4.0mph /  6.4km/h 7.0mph /  11.3km/h 70% 0.00in /  0mm
07:25 5.4 °F /  -14.8 °C -2.3 °F /  -19.1 °C 30.01in /  1016.1hPa SSW 4.0mph /  6.4km/h 8.0mph /  12.9km/h 70% 0.00in /  0mm
07:30 5.5 °F /  -14.7 °C -2.2 °F /  -19 °C 30.01in /  1016.1hPa SW 5.0mph /  8km/h 8.0mph /  12.9km/h 70% 0.00in /  0mm
07:35 5.5 °F /  -14.7 °C -2.2 °F /  -19 °C 30.01in /  1016.1hPa SSW 3.0mph /  4.8km/h 8.0mph /  12.9km/h 70% 0.00in /  0mm
07:40 5.5 °F /  -14.7 °C -2.2 °F /  -19 °C 30.02in /  1016.5hPa SSW 4.0mph /  6.4km/h 8.0mph /  12.9km/h 70% 0.00in /  0mm
07:45 5.6 °F /  -14.7 °C -1.8 °F /  -18.8 °C 30.02in /  1016.5hPa SSW 4.0mph /  6.4km/h 7.0mph /  11.3km/h 71% 0.00in /  0mm
07:50 5.7 °F /  -14.6 °C -2.0 °F /  -18.9 °C 30.02in /  1016.5hPa SSW 4.0mph /  6.4km/h 7.0mph /  11.3km/h 70% 0.00in /  0mm
07:55 6.4 °F /  -14.2 °C -1.0 °F /  -18.3 °C 30.02in /  1016.5hPa SSW 6.0mph /  9.7km/h 8.0mph /  12.9km/h 71% 0.00in /  0mm
08:00 6.7 °F /  -14.1 °C -1.0 °F /  -18.3 °C 30.02in /  1016.5hPa SSW 4.0mph /  6.4km/h 10.0mph /  16.1km/h 70% 0.00in /  0mm
08:04 7.1 °F /  -13.8 °C -0.9 °F /  -18.3 °C 30.02in /  1016.5hPa SSW 6.0mph /  9.7km/h 10.0mph /  16.1km/h 69% 0.00in /  0mm
08:10 7.6 °F /  -13.6 °C -0.8 °F /  -18.2 °C 30.03in /  1016.8hPa SSW 5.0mph /  8km/h 11.0mph /  17.7km/h 68% 0.00in /  0mm
08:14 7.9 °F /  -13.4 °C -0.5 °F /  -18.1 °C 30.03in /  1016.8hPa SW 5.0mph /  8km/h 11.0mph /  17.7km/h 68% 0.00in /  0mm
08:20 8.4 °F /  -13.1 °C 0.0 °F /  -17.8 °C 30.03in /  1016.8hPa SSW 6.0mph /  9.7km/h 11.0mph /  17.7km/h 68% 0.00in /  0mm
08:24 8.8 °F /  -12.9 °C 0.1 °F /  -17.7 °C 30.03in /  1016.8hPa SSW 5.0mph /  8km/h 11.0mph /  17.7km/h 67% 0.00in /  0mm
08:30 9.2 °F /  -12.7 °C 0.5 °F /  -17.5 °C 30.03in /  1016.8hPa SSW 6.0mph /  9.7km/h 12.0mph /  19.3km/h 67% 0.00in /  0mm
08:35 9.5 °F /  -12.5 °C 0.4 °F /  -17.6 °C 30.03in /  1016.8hPa SSW 7.0mph /  11.3km/h 12.0mph /  19.3km/h 66% 0.00in /  0mm
08:40 9.8 °F /  -12.3 °C 0.7 °F /  -17.4 °C 30.03in /  1016.8hPa SW 6.0mph /  9.7km/h 12.0mph /  19.3km/h 66% 0.00in /  0mm
08:45 9.9 °F /  -12.3 °C 0.8 °F /  -17.3 °C 30.03in /  1016.8hPa SSW 5.0mph /  8km/h 12.0mph /  19.3km/h 66% 0.00in /  0mm
08:50 10.1 °F /  -12.2 °C 1.0 °F /  -17.2 °C 30.03in /  1016.8hPa SW 8.0mph /  12.9km/h 14.0mph /  22.5km/h 66% 0.00in /  0mm
08:55 10.4 °F /  -12 °C 1.3 °F /  -17.1 °C 30.04in /  1017.2hPa SSW 5.0mph /  8km/h 14.0mph /  22.5km/h 66% 0.00in /  0mm
08:59 10.8 °F /  -11.8 °C 1.7 °F /  -16.8 °C 30.04in /  1017.2hPa SSW 6.0mph /  9.7km/h 11.0mph /  17.7km/h 66% 0.00in /  0mm
09:05 11.0 °F /  -11.7 °C 1.5 °F /  -16.9 °C 30.04in /  1017.2hPa SW 7.0mph /  11.3km/h 13.0mph /  20.9km/h 65% 0.00in /  0mm
09:09 11.2 °F /  -11.6 °C 1.7 °F /  -16.8 °C 30.04in /  1017.2hPa SSW 4.0mph /  6.4km/h 13.0mph /  20.9km/h 65% 0.00in /  0mm
09:15 11.4 °F /  -11.4 °C 1.9 °F /  -16.7 °C 30.04in /  1017.2hPa SW 7.0mph /  11.3km/h 13.0mph /  20.9km/h 65% 0.00in /  0mm
09:19 11.6 °F /  -11.3 °C 2.1 °F /  -16.6 °C 30.04in /  1017.2hPa SW 6.0mph /  9.7km/h 13.0mph /  20.9km/h 65% 0.00in /  0mm
09:25 11.9 °F /  -11.2 °C 2.1 °F /  -16.6 °C 30.04in /  1017.2hPa SW 7.0mph /  11.3km/h 12.0mph /  19.3km/h 64% 0.00in /  0mm
09:30 12.2 °F /  -11 °C 2.3 °F /  -16.5 °C 30.04in /  1017.2hPa SW 8.0mph /  12.9km/h 13.0mph /  20.9km/h 64% 0.00in /  0mm
09:35 12.6 °F /  -10.8 °C 2.7 °F /  -16.3 °C 30.04in /  1017.2hPa SSW 6.0mph /  9.7km/h 13.0mph /  20.9km/h 64% 0.00in /  0mm
09:40 12.9 °F /  -10.6 °C 3.0 °F /  -16.1 °C 30.04in /  1017.2hPa SW 5.0mph /  8km/h 12.0mph /  19.3km/h 64% 0.00in /  0mm
09:44 13.0 °F /  -10.6 °C 2.8 °F /  -16.2 °C 30.04in /  1017.2hPa SSW 6.0mph /  9.7km/h 13.0mph /  20.9km/h 63% 0.00in /  0mm
09:50 13.5 °F /  -10.3 °C 2.9 °F /  -16.2 °C 30.04in /  1017.2hPa SSW 6.0mph /  9.7km/h 13.0mph /  20.9km/h 62% 0.00in /  0mm
09:55 13.8 °F /  -10.1 °C 2.8 °F /  -16.2 °C 30.04in /  1017.2hPa SSW 7.0mph /  11.3km/h 12.0mph /  19.3km/h 61% 0.00in /  0mm
09:59 13.9 °F /  -10.1 °C 2.9 °F /  -16.2 °C 30.05in /  1017.5hPa SSW 5.0mph /  8km/h 12.0mph /  19.3km/h 61% 0.00in /  0mm
10:05 14.0 °F /  -10 °C 2.7 °F /  -16.3 °C 30.04in /  1017.2hPa SSW 7.0mph /  11.3km/h 14.0mph /  22.5km/h 60% 0.00in /  0mm
10:10 14.2 °F /  -9.9 °C 3.2 °F /  -16 °C 30.04in /  1017.2hPa SSW 8.0mph /  12.9km/h 14.0mph /  22.5km/h 61% 0.00in /  0mm
10:14 14.3 °F /  -9.8 °C 2.9 °F /  -16.2 °C 30.05in /  1017.5hPa SSW 5.0mph /  8km/h 15.0mph /  24.1km/h 60% 0.00in /  0mm
10:20 14.5 °F /  -9.7 °C 3.1 °F /  -16.1 °C 30.04in /  1017.2hPa SSW 7.0mph /  11.3km/h 15.0mph /  24.1km/h 60% 0.00in /  0mm
10:25 14.9 °F /  -9.5 °C 3.2 °F /  -16 °C 30.05in /  1017.5hPa SSW 6.0mph /  9.7km/h 12.0mph /  19.3km/h 59% 0.00in /  0mm
10:30 15.1 °F /  -9.4 °C 3.0 °F /  -16.1 °C 30.05in /  1017.5hPa SSW 7.0mph /  11.3km/h 12.0mph /  19.3km/h 58% 0.00in /  0mm
10:35 15.2 °F /  -9.3 °C 3.1 °F /  -16.1 °C 30.05in /  1017.5hPa SSW 6.0mph /  9.7km/h 12.0mph /  19.3km/h 58% 0.00in /  0mm
10:40 14.9 °F /  -9.5 °C 3.2 °F /  -16 °C 30.04in /  1017.2hPa SSW 8.0mph /  12.9km/h 12.0mph /  19.3km/h 59% 0.00in /  0mm
10:44 14.8 °F /  -9.6 °C 3.1 °F /  -16.1 °C 30.05in /  1017.5hPa SSW 6.0mph /  9.7km/h 12.0mph /  19.3km/h 59% 0.00in /  0mm
10:50 15.1 °F /  -9.4 °C 3.3 °F /  -15.9 °C 30.04in /  1017.2hPa SSW 7.0mph /  11.3km/h 11.0mph /  17.7km/h 59% 0.00in /  0mm
10:55 15.5 °F /  -9.2 °C 3.7 °F /  -15.7 °C 30.04in /  1017.2hPa SSW 6.0mph /  9.7km/h 11.0mph /  17.7km/h 59% 0.00in /  0mm
10:59 15.7 °F /  -9.1 °C 3.9 °F /  -15.6 °C 30.04in /  1017.2hPa SSW 5.0mph /  8km/h 10.0mph /  16.1km/h 59% 0.00in /  0mm
11:05 16.0 °F /  -8.9 °C 4.2 °F /  -15.4 °C 30.05in /  1017.5hPa SSW 6.0mph /  9.7km/h 12.0mph /  19.3km/h 59% 0.00in /  0mm
11:09 16.8 °F /  -8.4 °C 4.9 °F /  -15.1 °C 30.05in /  1017.5hPa SSW 5.0mph /  8km/h 12.0mph /  19.3km/h 59% 0.00in /  0mm
11:15 17.0 °F /  -8.3 °C 4.4 °F /  -15.3 °C 30.04in /  1017.2hPa SSW 7.0mph /  11.3km/h 12.0mph /  19.3km/h 57% 0.00in /  0mm
11:19 17.3 °F /  -8.2 °C 5.0 °F /  -15 °C 30.04in /  1017.2hPa SSW 6.0mph /  9.7km/h 12.0mph /  19.3km/h 58% 0.00in /  0mm
11:25 17.5 °F /  -8.1 °C 4.9 °F /  -15.1 °C 30.04in /  1017.2hPa SW 7.0mph /  11.3km/h 11.0mph /  17.7km/h 57% 0.00in /  0mm
11:30 17.9 °F /  -7.8 °C 5.2 °F /  -14.9 °C 30.04in /  1017.2hPa SSW 6.0mph /  9.7km/h 11.0mph /  17.7km/h 57% 0.00in /  0mm
11:35 18.1 °F /  -7.7 °C 5.4 °F /  -14.8 °C 30.04in /  1017.2hPa SW 5.0mph /  8km/h 10.0mph /  16.1km/h 57% 0.00in /  0mm
11:44 17.9 °F /  -7.8 °C 5.2 °F /  -14.9 °C 30.04in /  1017.2hPa SSW 5.0mph /  8km/h 11.0mph /  17.7km/h 57% 0.00in /  0mm
11:50 18.3 °F /  -7.6 °C 5.6 °F /  -14.7 °C 30.04in /  1017.2hPa SW 3.0mph /  4.8km/h 9.0mph /  14.5km/h 57% 0.00in /  0mm
11:55 18.5 °F /  -7.5 °C 5.8 °F /  -14.6 °C 30.04in /  1017.2hPa SSW 5.0mph /  8km/h 9.0mph /  14.5km/h 57% 0.00in /  0mm
12:00 18.1 °F /  -7.7 °C 5.4 °F /  -14.8 °C 30.03in /  1016.8hPa SW 5.0mph /  8km/h 10.0mph /  16.1km/h 57% 0.00in /  0mm
12:05 17.7 °F /  -7.9 °C 5.4 °F /  -14.8 °C 30.03in /  1016.8hPa SSW 5.0mph /  8km/h 12.0mph /  19.3km/h 58% 0.00in /  0mm
12:09 17.8 °F /  -7.9 °C 5.1 °F /  -14.9 °C 30.03in /  1016.8hPa SSW 7.0mph /  11.3km/h 12.0mph /  19.3km/h 57% 0.00in /  0mm
12:15 17.5 °F /  -8.1 °C 4.9 °F /  -15.1 °C 30.03in /  1016.8hPa SSW 6.0mph /  9.7km/h 12.0mph /  19.3km/h 57% 0.00in /  0mm
12:19 17.6 °F /  -8 °C 4.9 °F /  -15.1 °C 30.03in /  1016.8hPa SSW 7.0mph /  11.3km/h 12.0mph /  19.3km/h 57% 0.00in /  0mm
12:25 17.4 °F /  -8.1 °C 4.8 °F /  -15.1 °C 30.03in /  1016.8hPa SSW 8.0mph /  12.9km/h 14.0mph /  22.5km/h 57% 0.00in /  0mm
12:30 17.5 °F /  -8.1 °C 4.9 °F /  -15.1 °C 30.03in /  1016.8hPa SSW 6.0mph /  9.7km/h 14.0mph /  22.5km/h 57% 0.00in /  0mm
12:35 17.7 °F /  -7.9 °C 5.0 °F /  -15 °C 30.03in /  1016.8hPa SSW 7.0mph /  11.3km/h 13.0mph /  20.9km/h 57% 0.00in /  0mm
12:44 18.1 °F /  -7.7 °C 5.4 °F /  -14.8 °C 30.02in /  1016.5hPa SSW 6.0mph /  9.7km/h 13.0mph /  20.9km/h 57% 0.00in /  0mm
12:50 18.7 °F /  -7.4 °C 5.6 °F /  -14.7 °C 30.02in /  1016.5hPa SW 6.0mph /  9.7km/h 12.0mph /  19.3km/h 56% 0.00in /  0mm
12:55 18.9 °F /  -7.3 °C 5.8 °F /  -14.6 °C 30.02in /  1016.5hPa SSW 7.0mph /  11.3km/h 12.0mph /  19.3km/h 56% 0.00in /  0mm
12:59 18.7 °F /  -7.4 °C 5.6 °F /  -14.7 °C 30.02in /  1016.5hPa SW 6.0mph /  9.7km/h 12.0mph /  19.3km/h 56% 0.00in /  0mm
13:05 18.8 °F /  -7.3 °C 5.7 °F /  -14.6 °C 30.02in /  1016.5hPa South 7.0mph /  11.3km/h 15.0mph /  24.1km/h 56% 0.00in /  0mm
13:09 19.3 °F /  -7.1 °C 6.5 °F /  -14.2 °C 30.02in /  1016.5hPa SW 3.0mph /  4.8km/h 15.0mph /  24.1km/h 57% 0.00in /  0mm
13:14 19.4 °F /  -7 °C 6.3 °F /  -14.3 °C 30.02in /  1016.5hPa WSW 4.0mph /  6.4km/h 9.0mph /  14.5km/h 56% 0.00in /  0mm
13:20 19.7 °F /  -6.8 °C 6.5 °F /  -14.2 °C 30.02in /  1016.5hPa SSW 3.0mph /  4.8km/h 9.0mph /  14.5km/h 56% 0.00in /  0mm
13:24 20.0 °F /  -6.7 °C 6.4 °F /  -14.2 °C 30.02in /  1016.5hPa WSW 3.0mph /  4.8km/h 9.0mph /  14.5km/h 55% 0.00in /  0mm
13:30 19.9 °F /  -6.7 °C 6.3 °F /  -14.3 °C 30.02in /  1016.5hPa SW 6.0mph /  9.7km/h 10.0mph /  16.1km/h 55% 0.00in /  0mm
13:34 19.9 °F /  -6.7 °C 6.3 °F /  -14.3 °C 30.02in /  1016.5hPa SW 5.0mph /  8km/h 10.0mph /  16.1km/h 55% 0.00in /  0mm
13:39 19.7 °F /  -6.8 °C 6.1 °F /  -14.4 °C 30.02in /  1016.5hPa SSW 5.0mph /  8km/h 12.0mph /  19.3km/h 55% 0.00in /  0mm
13:45 19.7 °F /  -6.8 °C 6.1 °F /  -14.4 °C 30.02in /  1016.5hPa SSW 7.0mph /  11.3km/h 12.0mph /  19.3km/h 55% 0.00in /  0mm
13:49 19.7 °F /  -6.8 °C 6.1 °F /  -14.4 °C 30.02in /  1016.5hPa SSW 5.0mph /  8km/h 10.0mph /  16.1km/h 55% 0.00in /  0mm
13:55 19.7 °F /  -6.8 °C 6.1 °F /  -14.4 °C 30.02in /  1016.5hPa SSW 7.0mph /  11.3km/h 10.0mph /  16.1km/h 55% 0.00in /  0mm
14:00 19.7 °F /  -6.8 °C 6.1 °F /  -14.4 °C 30.02in /  1016.5hPa SSW 4.0mph /  6.4km/h 10.0mph /  16.1km/h 55% 0.00in /  0mm
14:05 20.0 °F /  -6.7 °C 6.4 °F /  -14.2 °C 30.02in /  1016.5hPa SSW 4.0mph /  6.4km/h 10.0mph /  16.1km/h 55% 0.00in /  0mm
14:14 19.9 °F /  -6.7 °C 5.9 °F /  -14.5 °C 30.02in /  1016.5hPa SSW 6.0mph /  9.7km/h 10.0mph /  16.1km/h 54% 0.00in /  0mm
14:19 19.7 °F /  -6.8 °C 6.1 °F /  -14.4 °C 30.02in /  1016.5hPa South 3.0mph /  4.8km/h 10.0mph /  16.1km/h 55% 0.00in /  0mm
14:24 20.0 °F /  -6.7 °C 6.4 °F /  -14.2 °C 30.02in /  1016.5hPa SSW 4.0mph /  6.4km/h 10.0mph /  16.1km/h 55% 0.00in /  0mm
14:30 20.6 °F /  -6.3 °C 6.2 °F /  -14.3 °C 30.01in /  1016.1hPa SSW 6.0mph /  9.7km/h 10.0mph /  16.1km/h 53% 0.00in /  0mm
14:35 20.6 °F /  -6.3 °C 6.6 °F /  -14.1 °C 30.02in /  1016.5hPa SW 3.0mph /  4.8km/h 11.0mph /  17.7km/h 54% 0.00in /  0mm
14:39 20.3 °F /  -6.5 °C 5.9 °F /  -14.5 °C 30.01in /  1016.1hPa SSW 6.0mph /  9.7km/h 12.0mph /  19.3km/h 53% 0.00in /  0mm
14:44 20.5 °F /  -6.4 °C 6.5 °F /  -14.2 °C 30.01in /  1016.1hPa SSW 5.0mph /  8km/h 12.0mph /  19.3km/h 54% 0.00in /  0mm
14:50 20.7 °F /  -6.3 °C 6.7 °F /  -14.1 °C 30.01in /  1016.1hPa SSW 4.0mph /  6.4km/h 8.0mph /  12.9km/h 54% 0.00in /  0mm
14:55 20.6 °F /  -6.3 °C 6.2 °F /  -14.3 °C 30.01in /  1016.1hPa SSW 4.0mph /  6.4km/h 8.0mph /  12.9km/h 53% 0.00in /  0mm
14:59 20.8 °F /  -6.2 °C 6.4 °F /  -14.2 °C 30.01in /  1016.1hPa SSW 4.0mph /  6.4km/h 8.0mph /  12.9km/h 53% 0.00in /  0mm
15:05 21.1 °F /  -6.1 °C 6.2 °F /  -14.3 °C 30.01in /  1016.1hPa SSW 4.0mph /  6.4km/h 9.0mph /  14.5km/h 52% 0.00in /  0mm
15:09 21.3 °F /  -5.9 °C 6.0 °F /  -14.4 °C 30.01in /  1016.1hPa SSW 2.0mph /  3.2km/h 9.0mph /  14.5km/h 51% 0.00in /  0mm
15:15 21.1 °F /  -6.1 °C 5.8 °F /  -14.6 °C 30.01in /  1016.1hPa SSW 4.0mph /  6.4km/h 8.0mph /  12.9km/h 51% 0.00in /  0mm
15:19 21.2 °F /  -6 °C 5.9 °F /  -14.5 °C 30.01in /  1016.1hPa SSW 4.0mph /  6.4km/h 8.0mph /  12.9km/h 51% 0.00in /  0mm
15:24 21.1 °F /  -6.1 °C 5.8 °F /  -14.6 °C 30.01in /  1016.1hPa South 3.0mph /  4.8km/h 7.0mph /  11.3km/h 51% 0.00in /  0mm
15:30 21.1 °F /  -6.1 °C 6.2 °F /  -14.3 °C 30.01in /  1016.1hPa SSW 2.0mph /  3.2km/h 8.0mph /  12.9km/h 52% 0.00in /  0mm
15:40 21.0 °F /  -6.1 °C 5.7 °F /  -14.6 °C 30.01in /  1016.1hPa SSW 1.0mph /  1.6km/h 7.0mph /  11.3km/h 51% 0.00in /  0mm
15:44 21.2 °F /  -6 °C 5.4 °F /  -14.8 °C 30.01in /  1016.1hPa SSW 3.0mph /  4.8km/h 6.0mph /  9.7km/h 50% 0.00in /  0mm
15:50 21.1 °F /  -6.1 °C 5.4 °F /  -14.8 °C 30.01in /  1016.1hPa SSW 4.0mph /  6.4km/h 6.0mph /  9.7km/h 50% 0.00in /  0mm
15:55 20.8 °F /  -6.2 °C 5.1 °F /  -14.9 °C 30.01in /  1016.1hPa SW 3.0mph /  4.8km/h 6.0mph /  9.7km/h 50% 0.00in /  0mm
15:59 20.8 °F /  -6.2 °C 5.1 °F /  -14.9 °C 30.00in /  1015.8hPa SSW 1.0mph /  1.6km/h 6.0mph /  9.7km/h 50% 0.00in /  0mm
16:04 20.9 °F /  -6.2 °C 5.2 °F /  -14.9 °C 30.00in /  1015.8hPa SSW 2.0mph /  3.2km/h 6.0mph /  9.7km/h 50% 0.00in /  0mm
16:09 20.6 °F /  -6.3 °C 4.9 °F /  -15.1 °C 30.00in /  1015.8hPa SW 4.0mph /  6.4km/h 5.0mph /  8km/h 50% 0.00in /  0mm
16:14 20.3 °F /  -6.5 °C 4.6 °F /  -15.2 °C 30.00in /  1015.8hPa South 3.0mph /  4.8km/h 5.0mph /  8km/h 50% 0.00in /  0mm
16:20 20.1 °F /  -6.6 °C 4.4 °F /  -15.3 °C 30.00in /  1015.8hPa SSW 1.0mph /  1.6km/h 5.0mph /  8km/h 50% 0.00in /  0mm
16:24 20.1 °F /  -6.6 °C 4.4 °F /  -15.3 °C 30.00in /  1015.8hPa SSW 2.0mph /  3.2km/h 5.0mph /  8km/h 50% 0.00in /  0mm
16:30 19.7 °F /  -6.8 °C 4.1 °F /  -15.5 °C 30.00in /  1015.8hPa SSW 3.0mph /  4.8km/h 5.0mph /  8km/h 50% 0.00in /  0mm
16:35 19.6 °F /  -6.9 °C 4.0 °F /  -15.6 °C 30.00in /  1015.8hPa SSW 2.0mph /  3.2km/h 5.0mph /  8km/h 50% 0.00in /  0mm
16:40 19.3 °F /  -7.1 °C 3.7 °F /  -15.7 °C 30.00in /  1015.8hPa SW 2.0mph /  3.2km/h 5.0mph /  8km/h 50% 0.00in /  0mm
16:44 19.0 °F /  -7.2 °C 3.8 °F /  -15.7 °C 30.00in /  1015.8hPa SSW 1.0mph /  1.6km/h 5.0mph /  8km/h 51% 0.00in /  0mm
16:49 18.8 °F /  -7.3 °C 3.6 °F /  -15.8 °C 30.00in /  1015.8hPa SSW 3.0mph /  4.8km/h 5.0mph /  8km/h 51% 0.00in /  0mm
16:55 18.2 °F /  -7.7 °C 3.1 °F /  -16.1 °C 30.00in /  1015.8hPa SSW 1.0mph /  1.6km/h 5.0mph /  8km/h 51% 0.00in /  0mm
17:00 17.6 °F /  -8 °C 3.4 °F /  -15.9 °C 30.00in /  1015.8hPa SSW 2.0mph /  3.2km/h 5.0mph /  8km/h 53% 0.00in /  0mm
17:04 16.9 °F /  -8.4 °C 2.7 °F /  -16.3 °C 30.00in /  1015.8hPa SSW 1.0mph /  1.6km/h 4.0mph /  6.4km/h 53% 0.00in /  0mm
17:10 15.9 °F /  -8.9 °C 3.3 °F /  -15.9 °C 30.00in /  1015.8hPa Calm   4.0mph /  6.4km/h 57% 0.00in /  0mm
17:14 15.1 °F /  -9.4 °C 2.6 °F /  -16.3 °C 30.00in /  1015.8hPa Calm   4.0mph /  6.4km/h 57% 0.00in /  0mm
17:20 14.8 °F /  -9.6 °C 2.7 °F /  -16.3 °C 30.00in /  1015.8hPa Calm   3.0mph /  4.8km/h 58% 0.00in /  0mm
17:24 14.5 °F /  -9.7 °C 2.4 °F /  -16.4 °C 29.99in /  1015.5hPa Calm   3.0mph /  4.8km/h 58% 0.00in /  0mm
17:30 14.3 °F /  -9.8 °C 4.0 °F /  -15.6 °C 30.00in /  1015.8hPa Calm     63% 0.00in /  0mm
17:35 13.6 °F /  -10.2 °C 2.6 °F /  -16.3 °C 30.00in /  1015.8hPa Calm     61% 0.00in /  0mm
17:40 13.0 °F /  -10.6 °C 2.1 °F /  -16.6 °C 30.00in /  1015.8hPa Calm     61% 0.00in /  0mm
17:44 12.9 °F /  -10.6 °C 3.7 °F /  -15.7 °C 30.00in /  1015.8hPa Calm     66% 0.00in /  0mm
17:50 12.7 °F /  -10.7 °C 2.1 °F /  -16.6 °C 30.00in /  1015.8hPa Calm   4.0mph /  6.4km/h 62% 0.00in /  0mm
17:55 12.8 °F /  -10.7 °C 1.9 °F /  -16.7 °C 29.99in /  1015.5hPa Calm   4.0mph /  6.4km/h 61% 0.00in /  0mm
17:59 12.8 °F /  -10.7 °C 2.2 °F /  -16.6 °C 30.00in /  1015.8hPa Calm   3.0mph /  4.8km/h 62% 0.00in /  0mm
18:04 12.7 °F /  -10.7 °C 2.1 °F /  -16.6 °C 30.00in /  1015.8hPa Calm   3.0mph /  4.8km/h 62% 0.00in /  0mm
18:09 12.4 °F /  -10.9 °C 1.9 °F /  -16.7 °C 29.99in /  1015.5hPa Calm   3.0mph /  4.8km/h 62% 0.00in /  0mm
18:14 12.3 °F /  -10.9 °C 2.4 °F /  -16.4 °C 29.99in /  1015.5hPa Calm     64% 0.00in /  0mm
18:19 12.3 °F /  -10.9 °C 2.8 °F /  -16.2 °C 30.00in /  1015.8hPa Calm     65% 0.00in /  0mm
18:24 12.3 °F /  -10.9 °C 3.1 °F /  -16.1 °C 29.99in /  1015.5hPa Calm     66% 0.00in /  0mm
18:30 11.9 °F /  -11.2 °C 1.4 °F /  -17 °C 29.99in /  1015.5hPa Calm     62% 0.00in /  0mm
18:35 11.7 °F /  -11.3 °C 2.5 °F /  -16.4 °C 30.00in /  1015.8hPa Calm     66% 0.00in /  0mm
18:39 11.6 °F /  -11.3 °C 2.4 °F /  -16.4 °C 30.00in /  1015.8hPa Calm     66% 0.00in /  0mm
18:45 11.5 °F /  -11.4 °C 2.3 °F /  -16.5 °C 29.99in /  1015.5hPa Calm     66% 0.00in /  0mm
18:49 11.6 °F /  -11.3 °C 2.8 °F /  -16.2 °C 29.99in /  1015.5hPa Calm   2.0mph /  3.2km/h 67% 0.00in /  0mm
18:55 11.8 °F /  -11.2 °C 2.6 °F /  -16.3 °C 29.99in /  1015.5hPa Calm   2.0mph /  3.2km/h 66% 0.00in /  0mm
19:00 11.6 °F /  -11.3 °C 2.4 °F /  -16.4 °C 29.99in /  1015.5hPa Calm   2.0mph /  3.2km/h 66% 0.00in /  0mm
19:04 11.7 °F /  -11.3 °C 2.9 °F /  -16.2 °C 29.99in /  1015.5hPa Calm   2.0mph /  3.2km/h 67% 0.00in /  0mm
19:10 11.6 °F /  -11.3 °C 2.4 °F /  -16.4 °C 29.99in /  1015.5hPa Calm     66% 0.00in /  0mm
19:15 11.8 °F /  -11.2 °C 3.3 °F /  -15.9 °C 29.99in /  1015.5hPa Calm     68% 0.00in /  0mm
19:20 11.7 °F /  -11.3 °C 3.2 °F /  -16 °C 29.99in /  1015.5hPa Calm     68% 0.00in /  0mm
19:24 11.7 °F /  -11.3 °C 3.2 °F /  -16 °C 29.99in /  1015.5hPa Calm     68% 0.00in /  0mm
19:30 11.3 °F /  -11.5 °C 2.1 °F /  -16.6 °C 29.98in /  1015.1hPa Calm     66% 0.00in /  0mm
19:35 11.2 °F /  -11.6 °C 1.7 °F /  -16.8 °C 29.98in /  1015.1hPa Calm   2.0mph /  3.2km/h 65% 0.00in /  0mm
19:39 11.0 °F /  -11.7 °C 1.5 °F /  -16.9 °C 29.98in /  1015.1hPa SSW 1.0mph /  1.6km/h 2.0mph /  3.2km/h 65% 0.00in /  0mm
19:45 11.5 °F /  -11.4 °C 1.7 °F /  -16.8 °C 29.98in /  1015.1hPa SSW 1.0mph /  1.6km/h 4.0mph /  6.4km/h 64% 0.00in /  0mm
19:49 11.8 °F /  -11.2 °C 2.0 °F /  -16.7 °C 29.98in /  1015.1hPa SSW 1.0mph /  1.6km/h 4.0mph /  6.4km/h 64% 0.00in /  0mm
19:55 12.5 °F /  -10.8 °C 2.3 °F /  -16.5 °C 29.98in /  1015.1hPa SSW 2.0mph /  3.2km/h 4.0mph /  6.4km/h 63% 0.00in /  0mm
19:59 13.3 °F /  -10.4 °C 2.7 °F /  -16.3 °C 29.99in /  1015.5hPa SSW 1.0mph /  1.6km/h 5.0mph /  8km/h 62% 0.00in /  0mm
20:04 13.6 °F /  -10.2 °C 2.6 °F /  -16.3 °C 29.99in /  1015.5hPa SSW 1.0mph /  1.6km/h 5.0mph /  8km/h 61% 0.00in /  0mm
20:09 14.0 °F /  -10 °C 2.7 °F /  -16.3 °C 29.99in /  1015.5hPa SSW 2.0mph /  3.2km/h 5.0mph /  8km/h 60% 0.00in /  0mm
20:14 14.5 °F /  -9.7 °C 3.1 °F /  -16.1 °C 29.99in /  1015.5hPa SSW 2.0mph /  3.2km/h 6.0mph /  9.7km/h 60% 0.00in /  0mm
20:19 14.7 °F /  -9.6 °C 3.0 °F /  -16.1 °C 29.99in /  1015.5hPa SSW 2.0mph /  3.2km/h 6.0mph /  9.7km/h 59% 0.00in /  0mm
20:24 14.8 °F /  -9.6 °C 3.1 °F /  -16.1 °C 29.98in /  1015.1hPa SSW 2.0mph /  3.2km/h 6.0mph /  9.7km/h 59% 0.00in /  0mm
20:30 14.9 °F /  -9.5 °C 3.2 °F /  -16 °C 29.98in /  1015.1hPa SSW 1.0mph /  1.6km/h 6.0mph /  9.7km/h 59% 0.00in /  0mm
20:35 14.7 °F /  -9.6 °C 3.3 °F /  -15.9 °C 29.99in /  1015.5hPa SSW 2.0mph /  3.2km/h 6.0mph /  9.7km/h 60% 0.00in /  0mm
20:39 14.6 °F /  -9.7 °C 3.2 °F /  -16 °C 29.99in /  1015.5hPa SSW 2.0mph /  3.2km/h 6.0mph /  9.7km/h 60% 0.00in /  0mm
20:44 14.7 °F /  -9.6 °C 3.3 °F /  -15.9 °C 29.99in /  1015.5hPa SSW 1.0mph /  1.6km/h 6.0mph /  9.7km/h 60% 0.00in /  0mm
20:49 14.6 °F /  -9.7 °C 3.6 °F /  -15.8 °C 29.98in /  1015.1hPa SSW 1.0mph /  1.6km/h 7.0mph /  11.3km/h 61% 0.00in /  0mm
20:55 14.5 °F /  -9.7 °C 3.5 °F /  -15.8 °C 29.98in /  1015.1hPa SW 2.0mph /  3.2km/h 8.0mph /  12.9km/h 61% 0.00in /  0mm
21:04 14.8 °F /  -9.6 °C 4.1 °F /  -15.5 °C 29.99in /  1015.5hPa SSW 4.0mph /  6.4km/h 8.0mph /  12.9km/h 62% 0.00in /  0mm
21:09 15.0 °F /  -9.4 °C 4.0 °F /  -15.6 °C 29.99in /  1015.5hPa SSW 4.0mph /  6.4km/h 8.0mph /  12.9km/h 61% 0.00in /  0mm
21:15 15.1 °F /  -9.4 °C 4.1 °F /  -15.5 °C 29.98in /  1015.1hPa SSW 4.0mph /  6.4km/h 9.0mph /  14.5km/h 61% 0.00in /  0mm
21:19 15.5 °F /  -9.2 °C 4.4 °F /  -15.3 °C 29.99in /  1015.5hPa SSW 3.0mph /  4.8km/h 9.0mph /  14.5km/h 61% 0.00in /  0mm
21:25 15.4 °F /  -9.2 °C 4.3 °F /  -15.4 °C 29.98in /  1015.1hPa SSW 3.0mph /  4.8km/h 7.0mph /  11.3km/h 61% 0.00in /  0mm
21:30 15.6 °F /  -9.1 °C 4.9 °F /  -15.1 °C 29.98in /  1015.1hPa SSW 2.0mph /  3.2km/h 8.0mph /  12.9km/h 62% 0.00in /  0mm
21:34 15.8 °F /  -9 °C 5.1 °F /  -14.9 °C 29.98in /  1015.1hPa SSW 3.0mph /  4.8km/h 8.0mph /  12.9km/h 62% 0.00in /  0mm
21:40 15.9 °F /  -8.9 °C 5.2 °F /  -14.9 °C 29.98in /  1015.1hPa SSW 3.0mph /  4.8km/h 8.0mph /  12.9km/h 62% 0.00in /  0mm
21:44 15.9 °F /  -8.9 °C 5.2 °F /  -14.9 °C 29.98in /  1015.1hPa SSW 4.0mph /  6.4km/h 8.0mph /  12.9km/h 62% 0.00in /  0mm
21:50 16.0 °F /  -8.9 °C 5.3 °F /  -14.8 °C 29.97in /  1014.8hPa SSW 2.0mph /  3.2km/h 8.0mph /  12.9km/h 62% 0.00in /  0mm
21:55 15.9 °F /  -8.9 °C 5.2 °F /  -14.9 °C 29.97in /  1014.8hPa SSW 3.0mph /  4.8km/h 7.0mph /  11.3km/h 62% 0.00in /  0mm
21:59 15.6 °F /  -9.1 °C 4.9 °F /  -15.1 °C 29.97in /  1014.8hPa SSW 3.0mph /  4.8km/h 7.0mph /  11.3km/h 62% 0.00in /  0mm
22:04 15.6 °F /  -9.1 °C 5.2 °F /  -14.9 °C 29.97in /  1014.8hPa SSW 4.0mph /  6.4km/h 7.0mph /  11.3km/h 63% 0.00in /  0mm
22:10 15.5 °F /  -9.2 °C 5.1 °F /  -14.9 °C 29.97in /  1014.8hPa SSW 5.0mph /  8km/h 8.0mph /  12.9km/h 63% 0.00in /  0mm
22:14 15.5 °F /  -9.2 °C 5.1 °F /  -14.9 °C 29.97in /  1014.8hPa SSW 2.0mph /  3.2km/h 8.0mph /  12.9km/h 63% 0.00in /  0mm
22:20 15.5 °F /  -9.2 °C 5.1 °F /  -14.9 °C 29.97in /  1014.8hPa SSW 2.0mph /  3.2km/h 5.0mph /  8km/h 63% 0.00in /  0mm
22:24 15.4 °F /  -9.2 °C 5.1 °F /  -14.9 °C 29.97in /  1014.8hPa SSW 2.0mph /  3.2km/h 5.0mph /  8km/h 63% 0.00in /  0mm
22:30 15.3 °F /  -9.3 °C 5.0 °F /  -15 °C 29.96in /  1014.4hPa SSW 3.0mph /  4.8km/h 5.0mph /  8km/h 63% 0.00in /  0mm
22:35 15.3 °F /  -9.3 °C 5.0 °F /  -15 °C 29.96in /  1014.4hPa South 1.0mph /  1.6km/h 5.0mph /  8km/h 63% 0.00in /  0mm
22:40 15.3 °F /  -9.3 °C 5.0 °F /  -15 °C 29.96in /  1014.4hPa SSW 2.0mph /  3.2km/h 5.0mph /  8km/h 63% 0.00in /  0mm
22:44 15.3 °F /  -9.3 °C 5.0 °F /  -15 °C 29.95in /  1014.1hPa Calm   5.0mph /  8km/h 63% 0.00in /  0mm
22:50 15.3 °F /  -9.3 °C 5.0 °F /  -15 °C 29.95in /  1014.1hPa SSW 2.0mph /  3.2km/h 5.0mph /  8km/h 63% 0.00in /  0mm
22:55 15.5 °F /  -9.2 °C 5.1 °F /  -14.9 °C 29.95in /  1014.1hPa SSW 2.0mph /  3.2km/h 5.0mph /  8km/h 63% 0.00in /  0mm
22:59 15.6 °F /  -9.1 °C 5.2 °F /  -14.9 °C 29.94in /  1013.8hPa SSW 1.0mph /  1.6km/h 5.0mph /  8km/h 63% 0.00in /  0mm
23:05 15.4 °F /  -9.2 °C 5.1 °F /  -14.9 °C 29.94in /  1013.8hPa Calm   5.0mph /  8km/h 63% 0.00in /  0mm
23:09 15.4 °F /  -9.2 °C 5.1 °F /  -14.9 °C 29.93in /  1013.4hPa Calm   5.0mph /  8km/h 63% 0.00in /  0mm
23:15 15.1 °F /  -9.4 °C 5.8 °F /  -14.6 °C 29.93in /  1013.4hPa Calm   5.0mph /  8km/h 66% 0.00in /  0mm
23:19 15.0 °F /  -9.4 °C 5.4 °F /  -14.8 °C 29.93in /  1013.4hPa South 1.0mph /  1.6km/h 4.0mph /  6.4km/h 65% 0.00in /  0mm
23:24 15.2 °F /  -9.3 °C 5.5 °F /  -14.7 °C 29.93in /  1013.4hPa SSW 1.0mph /  1.6km/h 5.0mph /  8km/h 65% 0.00in /  0mm
23:29 15.8 °F /  -9 °C 5.8 °F /  -14.6 °C 29.92in /  1013.1hPa SSW 2.0mph /  3.2km/h 6.0mph /  9.7km/h 64% 0.00in /  0mm
23:34 16.4 °F /  -8.7 °C 6.3 °F /  -14.3 °C 29.92in /  1013.1hPa South 3.0mph /  4.8km/h 6.0mph /  9.7km/h 64% 0.00in /  0mm
23:39 16.9 °F /  -8.4 °C 6.5 °F /  -14.2 °C 29.92in /  1013.1hPa SSW 2.0mph /  3.2km/h 7.0mph /  11.3km/h 63% 0.00in /  0mm
23:44 17.0 °F /  -8.3 °C 6.2 °F /  -14.3 °C 29.92in /  1013.1hPa SSW 1.0mph /  1.6km/h 7.0mph /  11.3km/h 62% 0.00in /  0mm
23:49 17.0 °F /  -8.3 °C 6.2 °F /  -14.3 °C 29.91in /  1012.8hPa SSW 2.0mph /  3.2km/h 6.0mph /  9.7km/h 62% 0.00in /  0mm
23:55 16.8 °F /  -8.4 °C 6.0 °F /  -14.4 °C 29.91in /  1012.8hPa SSW 2.0mph /  3.2km/h 6.0mph /  9.7km/h 62% 0.00in /  0mm
23:59 16.8 °F /  -8.4 °C 6.4 °F /  -14.2 °C 29.91in /  1012.8hPa SSW 2.0mph /  3.2km/h 6.0mph /  9.7km/h 63% 0.00in /  0mm
Westford Weather
Compliments of Weather Underground

 
 
Current Radar Loop:

Copyright © WestfordWeather.net 2007-2014. All rights reserved.